sensor_id;sensor_type;location;lat;lon;timestamp;P1;durP1;ratioP1;P2;durP2;ratioP2
21663;SDS011;10993;52.510;13.456;2022-12-01T00:00:22;44.57;;;14.30;;
21663;SDS011;10993;52.510;13.456;2022-12-01T00:05:22;40.93;;;14.23;;
21663;SDS011;10993;52.510;13.456;2022-12-01T00:10:23;35.90;;;13.17;;
21663;SDS011;10993;52.510;13.456;2022-12-01T00:15:29;38.77;;;12.47;;
21663;SDS011;10993;52.510;13.456;2022-12-01T00:20:33;38.53;;;13.13;;
21663;SDS011;10993;52.510;13.456;2022-12-01T00:25:34;34.73;;;10.93;;
21663;SDS011;10993;52.510;13.456;2022-12-01T00:30:36;41.13;;;13.03;;
21663;SDS011;10993;52.510;13.456;2022-12-01T00:35:36;39.13;;;12.67;;
21663;SDS011;10993;52.510;13.456;2022-12-01T00:40:36;43.00;;;13.93;;
21663;SDS011;10993;52.510;13.456;2022-12-01T00:45:38;39.13;;;13.33;;
21663;SDS011;10993;52.510;13.456;2022-12-01T00:50:38;38.87;;;13.77;;
21663;SDS011;10993;52.510;13.456;2022-12-01T00:55:39;36.40;;;13.73;;
21663;SDS011;10993;52.510;13.456;2022-12-01T01:00:41;42.37;;;12.07;;
21663;SDS011;10993;52.510;13.456;2022-12-01T01:05:41;44.63;;;15.40;;
21663;SDS011;10993;52.510;13.456;2022-12-01T01:10:43;41.93;;;13.20;;
21663;SDS011;10993;52.510;13.456;2022-12-01T01:15:46;38.43;;;12.53;;
21663;SDS011;10993;52.510;13.456;2022-12-01T01:20:56;44.33;;;13.33;;
21663;SDS011;10993;52.510;13.456;2022-12-01T01:25:59;43.83;;;14.07;;
21663;SDS011;10993;52.510;13.456;2022-12-01T01:31:04;46.67;;;14.00;;
21663;SDS011;10993;52.510;13.456;2022-12-01T01:36:05;49.53;;;12.43;;
21663;SDS011;10993;52.510;13.456;2022-12-01T01:41:06;38.83;;;14.23;;
21663;SDS011;10993;52.510;13.456;2022-12-01T01:46:10;39.90;;;11.90;;
21663;SDS011;10993;52.510;13.456;2022-12-01T01:51:12;43.90;;;12.90;;
21663;SDS011;10993;52.510;13.456;2022-12-01T01:56:14;37.37;;;12.17;;
21663;SDS011;10993;52.510;13.456;2022-12-01T02:01:16;29.43;;;10.90;;
21663;SDS011;10993;52.510;13.456;2022-12-01T02:06:16;50.10;;;13.77;;
21663;SDS011;10993;52.510;13.456;2022-12-01T02:11:21;40.83;;;11.90;;
21663;SDS011;10993;52.510;13.456;2022-12-01T02:16:49;34.70;;;12.03;;
21663;SDS011;10993;52.510;13.456;2022-12-01T02:22:00;41.30;;;12.80;;
21663;SDS011;10993;52.510;13.456;2022-12-01T02:27:22;43.17;;;12.70;;
21663;SDS011;10993;52.510;13.456;2022-12-01T02:32:47;42.27;;;13.40;;
21663;SDS011;10993;52.510;13.456;2022-12-01T02:37:57;33.27;;;11.13;;
21663;SDS011;10993;52.510;13.456;2022-12-01T02:43:08;40.60;;;13.60;;
21663;SDS011;10993;52.510;13.456;2022-12-01T02:48:17;38.33;;;13.73;;
21663;SDS011;10993;52.510;13.456;2022-12-01T02:53:23;48.27;;;14.13;;
21663;SDS011;10993;52.510;13.456;2022-12-01T02:58:24;38.07;;;13.67;;
21663;SDS011;10993;52.510;13.456;2022-12-01T03:03:30;35.50;;;12.17;;
21663;SDS011;10993;52.510;13.456;2022-12-01T03:08:47;34.60;;;12.90;;
21663;SDS011;10993;52.510;13.456;2022-12-01T03:13:56;46.77;;;13.33;;
21663;SDS011;10993;52.510;13.456;2022-12-01T03:19:09;48.53;;;13.13;;
21663;SDS011;10993;52.510;13.456;2022-12-01T03:24:14;47.67;;;13.07;;
21663;SDS011;10993;52.510;13.456;2022-12-01T03:29:20;41.53;;;12.53;;
21663;SDS011;10993;52.510;13.456;2022-12-01T03:34:27;35.77;;;10.90;;
21663;SDS011;10993;52.510;13.456;2022-12-01T03:39:34;37.40;;;12.67;;
21663;SDS011;10993;52.510;13.456;2022-12-01T03:44:38;50.97;;;14.50;;
21663;SDS011;10993;52.510;13.456;2022-12-01T03:49:45;55.90;;;16.00;;
21663;SDS011;10993;52.510;13.456;2022-12-01T03:54:48;48.17;;;14.87;;
21663;SDS011;10993;52.510;13.456;2022-12-01T03:59:54;46.10;;;15.63;;
21663;SDS011;10993;52.510;13.456;2022-12-01T04:04:56;38.30;;;13.70;;
21663;SDS011;10993;52.510;13.456;2022-12-01T04:09:56;42.83;;;14.10;;
21663;SDS011;10993;52.510;13.456;2022-12-01T04:14:57;45.53;;;12.73;;
21663;SDS011;10993;52.510;13.456;2022-12-01T04:20:00;54.93;;;15.13;;
21663;SDS011;10993;52.510;13.456;2022-12-01T04:25:00;48.13;;;16.33;;
21663;SDS011;10993;52.510;13.456;2022-12-01T04:30:01;60.33;;;17.10;;
21663;SDS011;10993;52.510;13.456;2022-12-01T04:35:03;56.03;;;16.23;;
21663;SDS011;10993;52.510;13.456;2022-12-01T04:40:04;47.27;;;14.23;;
21663;SDS011;10993;52.510;13.456;2022-12-01T04:45:06;53.40;;;16.73;;
21663;SDS011;10993;52.510;13.456;2022-12-01T04:50:09;49.13;;;16.20;;
21663;SDS011;10993;52.510;13.456;2022-12-01T04:55:10;42.83;;;14.17;;
21663;SDS011;10993;52.510;13.456;2022-12-01T05:00:11;48.40;;;14.80;;
21663;SDS011;10993;52.510;13.456;2022-12-01T05:05:14;43.53;;;14.97;;
21663;SDS011;10993;52.510;13.456;2022-12-01T05:10:14;43.00;;;13.00;;
21663;SDS011;10993;52.510;13.456;2022-12-01T05:15:18;41.90;;;13.03;;
21663;SDS011;10993;52.510;13.456;2022-12-01T05:20:20;46.03;;;13.37;;
21663;SDS011;10993;52.510;13.456;2022-12-01T05:25:40;48.00;;;14.83;;
21663;SDS011;10993;52.510;13.456;2022-12-01T05:30:41;43.57;;;13.80;;
21663;SDS011;10993;52.510;13.456;2022-12-01T05:35:43;39.03;;;13.43;;
21663;SDS011;10993;52.510;13.456;2022-12-01T05:40:48;42.93;;;14.90;;
21663;SDS011;10993;52.510;13.456;2022-12-01T05:45:48;43.30;;;15.10;;
21663;SDS011;10993;52.510;13.456;2022-12-01T05:50:50;38.67;;;14.53;;
21663;SDS011;10993;52.510;13.456;2022-12-01T05:55:51;43.57;;;14.27;;
21663;SDS011;10993;52.510;13.456;2022-12-01T06:00:52;43.03;;;15.17;;
21663;SDS011;10993;52.510;13.456;2022-12-01T06:05:53;48.60;;;16.07;;
21663;SDS011;10993;52.510;13.456;2022-12-01T06:10:54;45.20;;;15.10;;
21663;SDS011;10993;52.510;13.456;2022-12-01T06:15:55;44.77;;;15.17;;
21663;SDS011;10993;52.510;13.456;2022-12-01T06:20:58;39.33;;;14.87;;
21663;SDS011;10993;52.510;13.456;2022-12-01T06:25:58;40.03;;;15.80;;
21663;SDS011;10993;52.510;13.456;2022-12-01T06:30:58;48.00;;;16.00;;
21663;SDS011;10993;52.510;13.456;2022-12-01T06:36:01;44.87;;;14.83;;
21663;SDS011;10993;52.510;13.456;2022-12-01T06:41:02;42.83;;;14.13;;
21663;SDS011;10993;52.510;13.456;2022-12-01T06:46:03;44.90;;;16.50;;
21663;SDS011;10993;52.510;13.456;2022-12-01T06:51:06;43.53;;;15.73;;
21663;SDS011;10993;52.510;13.456;2022-12-01T06:56:06;44.57;;;16.23;;
21663;SDS011;10993;52.510;13.456;2022-12-01T07:01:07;54.87;;;16.90;;
21663;SDS011;10993;52.510;13.456;2022-12-01T07:06:09;50.50;;;17.40;;
21663;SDS011;10993;52.510;13.456;2022-12-01T07:11:10;54.93;;;17.53;;
21663;SDS011;10993;52.510;13.456;2022-12-01T07:16:12;52.93;;;15.63;;
21663;SDS011;10993;52.510;13.456;2022-12-01T07:21:14;52.28;;;18.13;;
21663;SDS011;10993;52.510;13.456;2022-12-01T07:26:16;59.23;;;18.17;;
21663;SDS011;10993;52.510;13.456;2022-12-01T07:31:17;55.37;;;17.60;;
21663;SDS011;10993;52.510;13.456;2022-12-01T07:36:19;53.93;;;17.67;;
21663;SDS011;10993;52.510;13.456;2022-12-01T07:41:20;60.70;;;17.63;;
21663;SDS011;10993;52.510;13.456;2022-12-01T07:46:21;63.10;;;19.00;;
21663;SDS011;10993;52.510;13.456;2022-12-01T07:51:25;55.63;;;16.87;;
21663;SDS011;10993;52.510;13.456;2022-12-01T07:56:26;58.23;;;18.97;;
21663;SDS011;10993;52.510;13.456;2022-12-01T08:01:26;68.17;;;19.73;;
21663;SDS011;10993;52.510;13.456;2022-12-01T08:06:28;66.73;;;18.43;;
21663;SDS011;10993;52.510;13.456;2022-12-01T08:11:28;65.93;;;19.13;;
21663;SDS011;10993;52.510;13.456;2022-12-01T08:16:29;62.23;;;20.33;;
21663;SDS011;10993;52.510;13.456;2022-12-01T08:21:31;53.67;;;17.73;;
21663;SDS011;10993;52.510;13.456;2022-12-01T08:26:32;57.87;;;20.00;;
21663;SDS011;10993;52.510;13.456;2022-12-01T08:31:32;56.27;;;19.73;;
21663;SDS011;10993;52.510;13.456;2022-12-01T08:36:35;59.83;;;19.33;;
21663;SDS011;10993;52.510;13.456;2022-12-01T08:41:36;80.07;;;22.17;;
21663;SDS011;10993;52.510;13.456;2022-12-01T08:46:36;55.23;;;17.67;;
21663;SDS011;10993;52.510;13.456;2022-12-01T08:51:38;64.87;;;21.27;;
21663;SDS011;10993;52.510;13.456;2022-12-01T08:56:39;58.13;;;19.23;;
21663;SDS011;10993;52.510;13.456;2022-12-01T09:01:41;70.77;;;22.13;;
21663;SDS011;10993;52.510;13.456;2022-12-01T09:06:55;61.67;;;19.73;;
21663;SDS011;10993;52.510;13.456;2022-12-01T09:11:56;54.17;;;17.73;;
21663;SDS011;10993;52.510;13.456;2022-12-01T09:16:57;59.57;;;19.10;;
21663;SDS011;10993;52.510;13.456;2022-12-01T09:21:58;62.17;;;20.30;;
21663;SDS011;10993;52.510;13.456;2022-12-01T09:26:59;66.00;;;20.77;;
21663;SDS011;10993;52.510;13.456;2022-12-01T09:31:59;68.13;;;20.97;;
21663;SDS011;10993;52.510;13.456;2022-12-01T09:37:01;58.43;;;20.77;;
21663;SDS011;10993;52.510;13.456;2022-12-01T09:42:03;61.17;;;19.33;;
21663;SDS011;10993;52.510;13.456;2022-12-01T09:47:12;61.50;;;21.00;;
21663;SDS011;10993;52.510;13.456;2022-12-01T09:52:19;61.20;;;20.63;;
21663;SDS011;10993;52.510;13.456;2022-12-01T09:57:25;52.13;;;17.47;;
21663;SDS011;10993;52.510;13.456;2022-12-01T10:02:30;52.03;;;18.40;;
21663;SDS011;10993;52.510;13.456;2022-12-01T10:07:36;57.67;;;18.93;;
21663;SDS011;10993;52.510;13.456;2022-12-01T10:12:42;45.17;;;15.93;;
21663;SDS011;10993;52.510;13.456;2022-12-01T10:17:48;48.10;;;18.30;;
21663;SDS011;10993;52.510;13.456;2022-12-01T10:23:08;54.80;;;16.23;;
21663;SDS011;10993;52.510;13.456;2022-12-01T10:28:25;43.83;;;15.00;;
21663;SDS011;10993;52.510;13.456;2022-12-01T10:33:48;47.20;;;17.53;;
21663;SDS011;10993;52.510;13.456;2022-12-01T10:38:58;47.10;;;16.83;;
21663;SDS011;10993;52.510;13.456;2022-12-01T10:43:59;51.97;;;17.33;;
21663;SDS011;10993;52.510;13.456;2022-12-01T10:49:06;53.70;;;17.53;;
21663;SDS011;10993;52.510;13.456;2022-12-01T10:54:10;45.77;;;16.97;;
21663;SDS011;10993;52.510;13.456;2022-12-01T11:04:32;49.30;;;17.20;;
21663;SDS011;10993;52.510;13.456;2022-12-01T11:09:36;44.57;;;16.57;;
21663;SDS011;10993;52.510;13.456;2022-12-01T11:14:40;38.27;;;15.87;;
21663;SDS011;10993;52.510;13.456;2022-12-01T11:19:43;48.60;;;16.53;;
21663;SDS011;10993;52.510;13.456;2022-12-01T11:24:54;50.83;;;16.07;;
21663;SDS011;10993;52.510;13.456;2022-12-01T11:29:56;38.83;;;16.20;;
21663;SDS011;10993;52.510;13.456;2022-12-01T11:35:02;49.83;;;17.57;;
21663;SDS011;10993;52.510;13.456;2022-12-01T11:40:10;41.90;;;15.83;;
21663;SDS011;10993;52.510;13.456;2022-12-01T11:45:22;38.20;;;14.93;;
21663;SDS011;10993;52.510;13.456;2022-12-01T11:50:27;45.60;;;17.13;;
21663;SDS011;10993;52.510;13.456;2022-12-01T11:55:30;39.60;;;15.17;;
21663;SDS011;10993;52.510;13.456;2022-12-01T12:00:33;47.40;;;16.63;;
21663;SDS011;10993;52.510;13.456;2022-12-01T12:05:54;43.97;;;15.10;;
21663;SDS011;10993;52.510;13.456;2022-12-01T12:11:03;43.20;;;15.63;;
21663;SDS011;10993;52.510;13.456;2022-12-01T12:16:14;44.17;;;15.53;;
21663;SDS011;10993;52.510;13.456;2022-12-01T12:21:25;36.73;;;13.20;;
21663;SDS011;10993;52.510;13.456;2022-12-01T12:26:34;32.67;;;12.67;;
21663;SDS011;10993;52.510;13.456;2022-12-01T12:31:43;31.97;;;13.13;;
21663;SDS011;10993;52.510;13.456;2022-12-01T12:36:56;40.53;;;14.37;;
21663;SDS011;10993;52.510;13.456;2022-12-01T12:42:06;38.77;;;14.33;;
21663;SDS011;10993;52.510;13.456;2022-12-01T12:47:18;40.33;;;14.50;;
21663;SDS011;10993;52.510;13.456;2022-12-01T12:52:31;33.77;;;13.53;;
21663;SDS011;10993;52.510;13.456;2022-12-01T12:57:36;35.70;;;13.97;;
21663;SDS011;10993;52.510;13.456;2022-12-01T13:02:40;31.77;;;12.83;;
21663;SDS011;10993;52.510;13.456;2022-12-01T13:07:45;40.67;;;15.33;;
21663;SDS011;10993;52.510;13.456;2022-12-01T13:12:51;36.70;;;12.57;;
21663;SDS011;10993;52.510;13.456;2022-12-01T13:17:57;41.97;;;15.20;;
21663;SDS011;10993;52.510;13.456;2022-12-01T13:23:02;35.40;;;12.77;;
21663;SDS011;10993;52.510;13.456;2022-12-01T13:28:10;39.57;;;14.07;;
21663;SDS011;10993;52.510;13.456;2022-12-01T13:33:14;36.00;;;13.50;;
21663;SDS011;10993;52.510;13.456;2022-12-01T13:38:18;38.47;;;14.43;;
21663;SDS011;10993;52.510;13.456;2022-12-01T13:43:21;34.20;;;13.33;;
21663;SDS011;10993;52.510;13.456;2022-12-01T13:48:26;41.73;;;14.60;;
21663;SDS011;10993;52.510;13.456;2022-12-01T13:53:29;37.67;;;14.20;;
21663;SDS011;10993;52.510;13.456;2022-12-01T13:58:45;34.27;;;14.23;;
21663;SDS011;10993;52.510;13.456;2022-12-01T14:03:50;33.37;;;12.87;;
21663;SDS011;10993;52.510;13.456;2022-12-01T14:08:52;34.93;;;14.17;;
21663;SDS011;10993;52.510;13.456;2022-12-01T14:13:59;33.90;;;12.93;;
21663;SDS011;10993;52.510;13.456;2022-12-01T14:19:11;29.70;;;12.27;;
21663;SDS011;10993;52.510;13.456;2022-12-01T14:24:29;31.53;;;12.73;;
21663;SDS011;10993;52.510;13.456;2022-12-01T14:29:34;37.50;;;14.83;;
21663;SDS011;10993;52.510;13.456;2022-12-01T14:34:37;41.10;;;14.80;;
21663;SDS011;10993;52.510;13.456;2022-12-01T14:39:39;29.77;;;12.17;;
21663;SDS011;10993;52.510;13.456;2022-12-01T14:44:43;34.57;;;13.03;;
21663;SDS011;10993;52.510;13.456;2022-12-01T14:49:48;39.70;;;14.03;;
21663;SDS011;10993;52.510;13.456;2022-12-01T14:54:53;33.10;;;13.47;;
21663;SDS011;10993;52.510;13.456;2022-12-01T15:00:04;34.20;;;13.13;;
21663;SDS011;10993;52.510;13.456;2022-12-01T15:05:10;37.17;;;13.40;;
21663;SDS011;10993;52.510;13.456;2022-12-01T15:10:16;38.63;;;14.50;;
21663;SDS011;10993;52.510;13.456;2022-12-01T15:15:20;30.27;;;12.97;;
21663;SDS011;10993;52.510;13.456;2022-12-01T15:20:25;38.30;;;12.30;;
21663;SDS011;10993;52.510;13.456;2022-12-01T15:25:28;34.73;;;13.60;;
21663;SDS011;10993;52.510;13.456;2022-12-01T15:30:33;34.70;;;13.67;;
21663;SDS011;10993;52.510;13.456;2022-12-01T15:35:34;32.97;;;13.83;;
21663;SDS011;10993;52.510;13.456;2022-12-01T15:40:35;38.00;;;13.27;;
21663;SDS011;10993;52.510;13.456;2022-12-01T15:45:47;34.73;;;11.70;;
21663;SDS011;10993;52.510;13.456;2022-12-01T15:50:57;28.77;;;12.20;;
21663;SDS011;10993;52.510;13.456;2022-12-01T15:56:01;28.57;;;12.30;;
21663;SDS011;10993;52.510;13.456;2022-12-01T16:01:07;39.63;;;14.63;;
21663;SDS011;10993;52.510;13.456;2022-12-01T16:06:10;33.20;;;12.67;;
21663;SDS011;10993;52.510;13.456;2022-12-01T16:11:12;35.60;;;13.77;;
21663;SDS011;10993;52.510;13.456;2022-12-01T16:16:28;37.90;;;13.93;;
21663;SDS011;10993;52.510;13.456;2022-12-01T16:21:40;34.00;;;13.37;;
21663;SDS011;10993;52.510;13.456;2022-12-01T16:26:45;30.67;;;12.83;;
21663;SDS011;10993;52.510;13.456;2022-12-01T16:31:49;31.90;;;13.50;;
21663;SDS011;10993;52.510;13.456;2022-12-01T16:36:51;29.63;;;11.67;;
21663;SDS011;10993;52.510;13.456;2022-12-01T16:41:51;37.47;;;14.07;;
21663;SDS011;10993;52.510;13.456;2022-12-01T16:46:54;33.63;;;12.90;;
21663;SDS011;10993;52.510;13.456;2022-12-01T16:51:54;32.67;;;12.33;;
21663;SDS011;10993;52.510;13.456;2022-12-01T16:56:54;35.07;;;13.27;;
21663;SDS011;10993;52.510;13.456;2022-12-01T17:01:56;33.53;;;13.00;;
21663;SDS011;10993;52.510;13.456;2022-12-01T17:06:57;34.97;;;14.77;;
21663;SDS011;10993;52.510;13.456;2022-12-01T17:11:57;35.37;;;13.07;;
21663;SDS011;10993;52.510;13.456;2022-12-01T17:16:59;30.73;;;12.47;;
21663;SDS011;10993;52.510;13.456;2022-12-01T17:22:00;38.03;;;14.17;;
21663;SDS011;10993;52.510;13.456;2022-12-01T17:27:00;34.37;;;13.60;;
21663;SDS011;10993;52.510;13.456;2022-12-01T17:32:02;36.43;;;14.13;;
21663;SDS011;10993;52.510;13.456;2022-12-01T17:37:02;36.17;;;13.13;;
21663;SDS011;10993;52.510;13.456;2022-12-01T17:42:02;29.03;;;12.00;;
21663;SDS011;10993;52.510;13.456;2022-12-01T17:47:04;32.77;;;12.13;;
21663;SDS011;10993;52.510;13.456;2022-12-01T17:52:05;34.50;;;13.63;;
21663;SDS011;10993;52.510;13.456;2022-12-01T17:57:07;31.70;;;13.60;;
21663;SDS011;10993;52.510;13.456;2022-12-01T18:02:09;37.73;;;13.27;;
21663;SDS011;10993;52.510;13.456;2022-12-01T18:07:11;36.50;;;13.77;;
21663;SDS011;10993;52.510;13.456;2022-12-01T18:12:12;34.87;;;13.10;;
21663;SDS011;10993;52.510;13.456;2022-12-01T18:17:13;35.27;;;13.37;;
21663;SDS011;10993;52.510;13.456;2022-12-01T18:22:14;31.90;;;13.70;;
21663;SDS011;10993;52.510;13.456;2022-12-01T18:27:14;38.35;;;12.80;;
21663;SDS011;10993;52.510;13.456;2022-12-01T18:32:16;30.37;;;12.33;;
21663;SDS011;10993;52.510;13.456;2022-12-01T18:37:16;35.57;;;13.37;;
21663;SDS011;10993;52.510;13.456;2022-12-01T18:42:17;30.87;;;13.00;;
21663;SDS011;10993;52.510;13.456;2022-12-01T18:47:18;31.47;;;13.83;;
21663;SDS011;10993;52.510;13.456;2022-12-01T18:52:19;34.17;;;12.93;;
21663;SDS011;10993;52.510;13.456;2022-12-01T18:57:19;37.50;;;14.03;;
21663;SDS011;10993;52.510;13.456;2022-12-01T19:02:21;35.20;;;13.73;;
21663;SDS011;10993;52.510;13.456;2022-12-01T19:07:21;29.10;;;12.37;;
21663;SDS011;10993;52.510;13.456;2022-12-01T19:12:21;27.23;;;12.30;;
21663;SDS011;10993;52.510;13.456;2022-12-01T19:17:23;29.43;;;12.47;;
21663;SDS011;10993;52.510;13.456;2022-12-01T19:22:24;33.00;;;14.03;;
21663;SDS011;10993;52.510;13.456;2022-12-01T19:27:24;30.87;;;12.33;;
21663;SDS011;10993;52.510;13.456;2022-12-01T19:32:28;35.67;;;13.07;;
21663;SDS011;10993;52.510;13.456;2022-12-01T19:37:29;35.17;;;14.40;;
21663;SDS011;10993;52.510;13.456;2022-12-01T19:42:29;36.70;;;14.03;;
21663;SDS011;10993;52.510;13.456;2022-12-01T19:47:31;29.87;;;12.10;;
21663;SDS011;10993;52.510;13.456;2022-12-01T19:52:32;32.13;;;12.50;;
21663;SDS011;10993;52.510;13.456;2022-12-01T19:57:34;39.03;;;12.93;;
21663;SDS011;10993;52.510;13.456;2022-12-01T20:02:36;32.47;;;12.87;;
21663;SDS011;10993;52.510;13.456;2022-12-01T20:07:37;30.30;;;12.87;;
21663;SDS011;10993;52.510;13.456;2022-12-01T20:12:37;34.07;;;13.97;;
21663;SDS011;10993;52.510;13.456;2022-12-01T20:17:39;30.13;;;13.03;;
21663;SDS011;10993;52.510;13.456;2022-12-01T20:22:39;29.57;;;12.60;;
21663;SDS011;10993;52.510;13.456;2022-12-01T20:27:39;30.47;;;11.33;;
21663;SDS011;10993;52.510;13.456;2022-12-01T20:32:42;27.13;;;11.60;;
21663;SDS011;10993;52.510;13.456;2022-12-01T20:37:43;29.03;;;12.77;;
21663;SDS011;10993;52.510;13.456;2022-12-01T20:42:43;31.00;;;13.13;;
21663;SDS011;10993;52.510;13.456;2022-12-01T20:47:45;33.67;;;12.67;;
21663;SDS011;10993;52.510;13.456;2022-12-01T20:52:45;33.50;;;12.20;;
21663;SDS011;10993;52.510;13.456;2022-12-01T20:57:45;30.73;;;12.70;;
21663;SDS011;10993;52.510;13.456;2022-12-01T21:02:47;34.07;;;13.33;;
21663;SDS011;10993;52.510;13.456;2022-12-01T21:07:47;33.70;;;13.83;;
21663;SDS011;10993;52.510;13.456;2022-12-01T21:12:49;34.73;;;13.10;;
21663;SDS011;10993;52.510;13.456;2022-12-01T21:18:24;31.33;;;13.13;;
21663;SDS011;10993;52.510;13.456;2022-12-01T21:23:28;28.03;;;12.27;;
21663;SDS011;10993;52.510;13.456;2022-12-01T21:28:29;31.03;;;13.00;;
21663;SDS011;10993;52.510;13.456;2022-12-01T21:33:31;33.83;;;13.33;;
21663;SDS011;10993;52.510;13.456;2022-12-01T21:38:32;33.57;;;13.70;;
21663;SDS011;10993;52.510;13.456;2022-12-01T21:43:33;28.23;;;12.57;;
21663;SDS011;10993;52.510;13.456;2022-12-01T21:48:36;26.50;;;10.87;;
21663;SDS011;10993;52.510;13.456;2022-12-01T21:53:36;30.70;;;12.27;;
21663;SDS011;10993;52.510;13.456;2022-12-01T21:58:38;33.43;;;12.17;;
21663;SDS011;10993;52.510;13.456;2022-12-01T22:03:42;30.07;;;12.20;;
21663;SDS011;10993;52.510;13.456;2022-12-01T22:08:44;30.27;;;10.87;;
21663;SDS011;10993;52.510;13.456;2022-12-01T22:13:46;32.40;;;11.90;;
21663;SDS011;10993;52.510;13.456;2022-12-01T22:18:50;31.40;;;12.27;;
21663;SDS011;10993;52.510;13.456;2022-12-01T22:23:55;31.77;;;12.63;;
21663;SDS011;10993;52.510;13.456;2022-12-01T22:28:59;26.87;;;10.20;;
21663;SDS011;10993;52.510;13.456;2022-12-01T22:34:01;32.27;;;11.07;;
21663;SDS011;10993;52.510;13.456;2022-12-01T22:39:02;33.20;;;12.93;;
21663;SDS011;10993;52.510;13.456;2022-12-01T22:44:10;27.43;;;11.63;;
21663;SDS011;10993;52.510;13.456;2022-12-01T22:49:14;25.20;;;10.87;;
21663;SDS011;10993;52.510;13.456;2022-12-01T22:54:31;34.97;;;13.67;;
21663;SDS011;10993;52.510;13.456;2022-12-01T22:59:34;26.13;;;11.60;;
21663;SDS011;10993;52.510;13.456;2022-12-01T23:04:38;28.63;;;11.60;;
21663;SDS011;10993;52.510;13.456;2022-12-01T23:09:40;30.67;;;11.73;;
21663;SDS011;10993;52.510;13.456;2022-12-01T23:14:43;32.60;;;12.40;;
21663;SDS011;10993;52.510;13.456;2022-12-01T23:19:46;30.97;;;11.77;;
21663;SDS011;10993;52.510;13.456;2022-12-01T23:24:48;29.37;;;11.63;;
21663;SDS011;10993;52.510;13.456;2022-12-01T23:29:48;31.37;;;11.33;;
21663;SDS011;10993;52.510;13.456;2022-12-01T23:34:50;30.90;;;11.93;;
21663;SDS011;10993;52.510;13.456;2022-12-01T23:39:50;32.97;;;13.00;;
21663;SDS011;10993;52.510;13.456;2022-12-01T23:44:51;27.67;;;11.40;;
21663;SDS011;10993;52.510;13.456;2022-12-01T23:49:53;30.67;;;12.73;;
21663;SDS011;10993;52.510;13.456;2022-12-01T23:54:57;30.93;;;11.40;;
21663;SDS011;10993;52.510;13.456;2022-12-01T23:59:58;29.80;;;11.53;;
